createdAt,value
2023-03-23T16:00:32.161Z,3.40
2023-03-23T16:03:53.994Z,3.58
2023-03-23T16:06:57.290Z,3.70
2023-03-23T16:09:58.759Z,3.40
2023-03-23T16:13:00.308Z,3.30
2023-03-23T16:16:02.953Z,3.55
2023-03-23T16:19:05.576Z,3.63
2023-03-23T16:22:07.166Z,3.47
2023-03-23T16:25:09.736Z,3.28
2023-03-23T16:28:13.091Z,3.50
2023-03-23T16:31:14.722Z,3.33
2023-03-23T16:34:16.134Z,3.08
2023-03-23T16:37:18.106Z,3.35
2023-03-23T16:40:20.980Z,3.30
2023-03-23T16:43:22.497Z,3.22
2023-03-23T16:46:23.936Z,3.38
2023-03-23T16:49:25.835Z,3.38
2023-03-23T16:52:27.452Z,4.22
2023-03-23T16:55:31.245Z,4.05
2023-03-23T16:58:32.690Z,4.50
2023-03-23T17:01:34.128Z,4.63
2023-03-23T17:04:35.643Z,4.50
2023-03-23T17:07:39.275Z,4.00
2023-03-23T17:10:41.625Z,4.00
2023-03-23T17:13:43.137Z,3.92
2023-03-23T17:16:44.699Z,3.67
2023-03-23T17:19:46.207Z,3.35
2023-03-23T17:22:48.094Z,3.30
2023-03-23T17:25:50.353Z,3.83
2023-03-23T17:28:51.791Z,4.00
2023-03-23T17:31:53.497Z,3.85
2023-03-23T17:34:55.261Z,4.00
2023-03-23T17:37:57.150Z,3.63
2023-03-23T17:44:00.984Z,4.38
2023-03-23T17:47:03.110Z,4.15
2023-03-23T17:53:13.971Z,4.90
2023-03-23T17:56:15.791Z,4.90
2023-03-23T17:59:17.246Z,4.80
2023-03-23T18:02:19.251Z,5.13
2023-03-23T18:05:20.738Z,5.78
2023-03-23T18:08:22.178Z,4.78
2023-03-23T18:11:23.631Z,4.93
2023-03-23T18:14:25.336Z,5.65
2023-03-23T18:17:26.968Z,4.88
2023-03-23T18:20:28.417Z,4.45
2023-03-23T18:23:37.429Z,4.78
2023-03-23T18:26:42.709Z,4.43
2023-03-23T18:29:44.206Z,4.68
2023-03-23T18:32:45.972Z,4.85
2023-03-23T18:35:48.193Z,5.70
2023-03-23T18:38:50.721Z,5.13
2023-03-23T18:41:52.170Z,4.97
2023-03-23T18:44:54.843Z,4.85
2023-03-23T18:47:56.523Z,4.95
2023-03-23T18:50:59.922Z,4.70
2023-03-23T18:54:01.352Z,6.00
2023-03-23T18:57:02.915Z,4.75
2023-03-23T19:00:04.793Z,5.28
2023-03-23T19:03:06.591Z,6.00
2023-03-23T19:06:16.213Z,5.18
2023-03-23T19:09:18.799Z,5.20
2023-03-23T19:12:21.057Z,5.72
2023-03-23T19:15:24.346Z,5.90
2023-03-23T19:18:26.026Z,5.60
2023-03-23T19:21:29.827Z,6.53
2023-03-23T19:24:33.263Z,6.85
2023-03-23T19:30:47.495Z,6.57
2023-03-23T19:33:49.022Z,6.28
2023-03-23T19:36:54.373Z,4.88
2023-03-23T19:39:59.269Z,4.07
2023-03-23T19:43:02.452Z,4.97
2023-03-23T19:46:04.369Z,4.20
2023-03-23T19:49:06.281Z,4.38
2023-03-23T19:52:12.647Z,4.32
2023-03-23T19:55:15.605Z,4.32
2023-03-23T19:58:17.123Z,3.88
2023-03-23T20:01:19.084Z,4.63
2023-03-23T20:04:21.187Z,4.00
2023-03-23T20:07:25.578Z,4.20
2023-03-23T20:10:30.030Z,4.63
2023-03-23T20:13:32.442Z,4.28
2023-03-23T20:16:34.924Z,4.60
2023-03-23T20:19:37.155Z,4.55
2023-03-23T20:22:38.613Z,4.28
2023-03-23T20:25:40.256Z,4.20
2023-03-23T20:28:42.607Z,4.32
2023-03-23T20:31:46.145Z,3.97
2023-03-23T20:34:50.841Z,4.10
2023-03-23T20:37:52.625Z,3.90
2023-03-23T20:40:56.880Z,4.43
2023-03-23T20:43:59.670Z,4.13
2023-03-23T20:47:05.004Z,4.47
2023-03-23T20:50:08.665Z,4.57
2023-03-23T20:53:10.142Z,4.43
2023-03-23T20:56:11.603Z,4.50
2023-03-23T20:59:14.164Z,5.00
2023-03-23T21:02:18.076Z,4.65
2023-03-23T21:05:20.370Z,4.47
2023-03-23T21:08:22.208Z,5.20
2023-03-23T21:11:26.219Z,5.25
2023-03-23T21:14:27.763Z,5.50
2023-03-23T21:17:29.257Z,5.35
2023-03-23T21:20:30.903Z,5.78
2023-03-23T21:23:33.592Z,6.00
2023-03-23T21:26:35.527Z,5.43
2023-03-23T21:29:38.733Z,5.13
2023-03-23T21:32:40.532Z,5.28
2023-03-23T21:35:42.023Z,5.70
2023-03-23T21:38:44.540Z,5.63
2023-03-23T21:41:49.599Z,4.93
2023-03-23T21:44:51.193Z,5.05
2023-03-23T21:47:57.389Z,5.18
2023-03-23T21:51:05.825Z,5.10
2023-03-23T21:54:08.055Z,4.75
2023-03-23T21:57:09.739Z,5.65
2023-03-23T22:00:14.885Z,5.15
2023-03-23T22:03:19.069Z,5.10
2023-03-23T22:06:23.539Z,5.18
2023-03-23T22:09:25.046Z,4.63
2023-03-23T22:12:26.558Z,5.00
2023-03-23T22:15:29.387Z,4.68
2023-03-23T22:18:31.295Z,5.13
2023-03-23T22:21:32.749Z,5.00
2023-03-23T22:24:34.273Z,4.60
2023-03-23T22:27:35.713Z,5.40
2023-03-23T22:30:37.614Z,5.15
2023-03-23T22:33:39.944Z,5.10
2023-03-23T22:36:41.631Z,4.90
2023-03-23T22:39:43.041Z,5.30
2023-03-23T22:42:44.499Z,5.35
2023-03-23T22:45:46.097Z,5.00
2023-03-23T22:48:47.578Z,5.07
2023-03-23T22:51:49.004Z,4.93
2023-03-23T22:54:50.902Z,4.70
2023-03-23T22:57:52.377Z,4.78
2023-03-23T23:01:00.711Z,4.68
2023-03-23T23:04:02.888Z,4.22
2023-03-23T23:10:14.752Z,4.50
2023-03-23T23:13:16.785Z,4.72
2023-03-23T23:16:19.433Z,4.38
2023-03-23T23:19:20.864Z,4.28
2023-03-23T23:22:22.249Z,4.28
2023-03-23T23:25:23.805Z,4.18
2023-03-23T23:28:25.463Z,3.78
2023-03-23T23:31:32.254Z,4.43
2023-03-23T23:34:34.733Z,3.90
2023-03-23T23:37:36.163Z,3.95
2023-03-23T23:40:38.811Z,3.80
2023-03-23T23:43:40.391Z,3.90
2023-03-23T23:46:41.809Z,3.80
2023-03-23T23:49:43.216Z,3.88
2023-03-23T23:52:44.764Z,3.83
2023-03-23T23:55:46.269Z,4.18
2023-03-23T23:58:48.723Z,3.92
